sensor_id;sensor_type;location;lat;lon;timestamp;pressure;altitude;pressure_sealevel;temperature;humidity
69570;BME280;56781;42.292;23.146;2023-05-10T00:01:18;95752.88;;;8.86;100.00
69570;BME280;56781;42.292;23.146;2023-05-10T00:03:45;95735.44;;;8.70;100.00
69570;BME280;56781;42.292;23.146;2023-05-10T00:06:12;95750.31;;;8.76;100.00
69570;BME280;56781;42.292;23.146;2023-05-10T00:08:40;95740.66;;;8.56;100.00
69570;BME280;56781;42.292;23.146;2023-05-10T00:11:07;95742.78;;;8.54;100.00
69570;BME280;56781;42.292;23.146;2023-05-10T00:13:34;95740.81;;;8.65;100.00
69570;BME280;56781;42.292;23.146;2023-05-10T00:16:03;95732.88;;;8.60;100.00
69570;BME280;56781;42.292;23.146;2023-05-10T00:18:30;95738.25;;;8.55;100.00
69570;BME280;56781;42.292;23.146;2023-05-10T00:20:57;95730.34;;;8.45;100.00
69570;BME280;56781;42.292;23.146;2023-05-10T00:23:24;95730.91;;;8.41;100.00
69570;BME280;56781;42.292;23.146;2023-05-10T00:25:52;95755.34;;;8.54;100.00
69570;BME280;56781;42.292;23.146;2023-05-10T00:28:19;95737.50;;;8.49;100.00
69570;BME280;56781;42.292;23.146;2023-05-10T00:30:46;95756.16;;;8.49;100.00
69570;BME280;56781;42.292;23.146;2023-05-10T00:33:13;95730.91;;;8.41;100.00
69570;BME280;56781;42.292;23.146;2023-05-10T00:35:41;95722.44;;;8.29;100.00
69570;BME280;56781;42.292;23.146;2023-05-10T00:38:08;95731.53;;;8.28;100.00
69570;BME280;56781;42.292;23.146;2023-05-10T00:40:36;95748.16;;;8.49;100.00
69570;BME280;56781;42.292;23.146;2023-05-10T00:43:04;95726.25;;;8.23;100.00
69570;BME280;56781;42.292;23.146;2023-05-10T00:45:32;95720.16;;;8.17;100.00
69570;BME280;56781;42.292;23.146;2023-05-10T00:48:04;95725.16;;;8.24;100.00
69570;BME280;56781;42.292;23.146;2023-05-10T00:50:32;95733.06;;;8.34;100.00
69570;BME280;56781;42.292;23.146;2023-05-10T00:53:01;95717.69;;;8.26;100.00
69570;BME280;56781;42.292;23.146;2023-05-10T00:55:29;95736.25;;;8.36;100.00
69570;BME280;56781;42.292;23.146;2023-05-10T00:57:57;95735.75;;;8.34;100.00
69570;BME280;56781;42.292;23.146;2023-05-10T01:00:24;95717.94;;;8.25;100.00
69570;BME280;56781;42.292;23.146;2023-05-10T01:02:53;95722.97;;;8.31;100.00
69570;BME280;56781;42.292;23.146;2023-05-10T01:05:21;95704.38;;;8.21;100.00
69570;BME280;56781;42.292;23.146;2023-05-10T01:07:49;95736.75;;;8.38;100.00
69570;BME280;56781;42.292;23.146;2023-05-10T01:10:16;95701.19;;;8.19;100.00
69570;BME280;56781;42.292;23.146;2023-05-10T01:12:45;95711.78;;;8.29;100.00
69570;BME280;56781;42.292;23.146;2023-05-10T01:15:14;95733.81;;;8.45;100.00
69570;BME280;56781;42.292;23.146;2023-05-10T01:17:43;95708.28;;;8.34;100.00
69570;BME280;56781;42.292;23.146;2023-05-10T01:20:12;95719.75;;;8.34;100.00
69570;BME280;56781;42.292;23.146;2023-05-10T01:33:39;95713.91;;;8.27;100.00
69570;BME280;56781;42.292;23.146;2023-05-10T01:39:17;95718.94;;;8.39;100.00
69570;BME280;56781;42.292;23.146;2023-05-10T01:41:52;95690.81;;;8.17;100.00
69570;BME280;56781;42.292;23.146;2023-05-10T01:44:31;95698.72;;;8.28;100.00
69570;BME280;56781;42.292;23.146;2023-05-10T01:47:12;95687.34;;;8.17;100.00
69570;BME280;56781;42.292;23.146;2023-05-10T01:49:46;95691.88;;;8.16;100.00
69570;BME280;56781;42.292;23.146;2023-05-10T01:52:18;95696.19;;;8.12;100.00
69570;BME280;56781;42.292;23.146;2023-05-10T01:54:55;95690.59;;;8.09;100.00
69570;BME280;56781;42.292;23.146;2023-05-10T01:57:26;95703.72;;;8.05;100.00
69570;BME280;56781;42.292;23.146;2023-05-10T01:59:54;95716.72;;;8.12;100.00
69570;BME280;56781;42.292;23.146;2023-05-10T02:02:24;95697.31;;;8.06;100.00
69570;BME280;56781;42.292;23.146;2023-05-10T02:04:53;95701.94;;;7.95;100.00
69570;BME280;56781;42.292;23.146;2023-05-10T02:07:23;95699.31;;;7.90;100.00
69570;BME280;56781;42.292;23.146;2023-05-10T02:09:51;95709.09;;;7.95;100.00
69570;BME280;56781;42.292;23.146;2023-05-10T02:12:19;95703.84;;;7.90;100.00
69570;BME280;56781;42.292;23.146;2023-05-10T02:14:47;95705.00;;;7.73;100.00
69570;BME280;56781;42.292;23.146;2023-05-10T02:17:15;95698.91;;;7.68;100.00
69570;BME280;56781;42.292;23.146;2023-05-10T02:19:44;95697.59;;;7.65;100.00
69570;BME280;56781;42.292;23.146;2023-05-10T02:22:13;95713.88;;;7.64;100.00
69570;BME280;56781;42.292;23.146;2023-05-10T02:24:43;95698.47;;;7.55;100.00
69570;BME280;56781;42.292;23.146;2023-05-10T02:27:12;95690.72;;;7.54;100.00
69570;BME280;56781;42.292;23.146;2023-05-10T02:29:41;95705.41;;;7.51;100.00
69570;BME280;56781;42.292;23.146;2023-05-10T02:32:10;95719.53;;;7.52;100.00
69570;BME280;56781;42.292;23.146;2023-05-10T02:34:38;95714.00;;;7.38;100.00
69570;BME280;56781;42.292;23.146;2023-05-10T02:37:06;95696.47;;;7.27;100.00
69570;BME280;56781;42.292;23.146;2023-05-10T02:39:34;95716.16;;;7.36;100.00
69570;BME280;56781;42.292;23.146;2023-05-10T02:42:02;95709.75;;;7.32;100.00
69570;BME280;56781;42.292;23.146;2023-05-10T02:44:30;95711.91;;;7.30;100.00
69570;BME280;56781;42.292;23.146;2023-05-10T02:46:58;95708.41;;;7.35;100.00
69570;BME280;56781;42.292;23.146;2023-05-10T02:49:25;95707.72;;;7.14;100.00
69570;BME280;56781;42.292;23.146;2023-05-10T02:51:56;95708.81;;;7.07;100.00
69570;BME280;56781;42.292;23.146;2023-05-10T02:54:30;95715.69;;;7.19;100.00
69570;BME280;56781;42.292;23.146;2023-05-10T02:57:00;95710.13;;;7.10;100.00
69570;BME280;56781;42.292;23.146;2023-05-10T02:59:31;95710.44;;;7.08;100.00
69570;BME280;56781;42.292;23.146;2023-05-10T03:01:59;95706.47;;;7.01;100.00
69570;BME280;56781;42.292;23.146;2023-05-10T03:04:27;95713.59;;;7.05;100.00
69570;BME280;56781;42.292;23.146;2023-05-10T03:06:55;95708.28;;;7.05;100.00
69570;BME280;56781;42.292;23.146;2023-05-10T03:09:23;95722.09;;;7.13;100.00
69570;BME280;56781;42.292;23.146;2023-05-10T03:12:07;95713.59;;;7.05;100.00
69570;BME280;56781;42.292;23.146;2023-05-10T03:14:53;95715.22;;;7.01;100.00
69570;BME280;56781;42.292;23.146;2023-05-10T03:17:29;95712.56;;;7.01;100.00
69570;BME280;56781;42.292;23.146;2023-05-10T03:19:58;95740.19;;;7.16;100.00
69570;BME280;56781;42.292;23.146;2023-05-10T03:22:43;95716.78;;;7.13;100.00
69570;BME280;56781;42.292;23.146;2023-05-10T03:25:12;95739.09;;;7.22;100.00
69570;BME280;56781;42.292;23.146;2023-05-10T03:27:43;95720.00;;;7.04;100.00
69570;BME280;56781;42.292;23.146;2023-05-10T03:30:12;95707.78;;;7.03;100.00
69570;BME280;56781;42.292;23.146;2023-05-10T03:32:40;95721.09;;;7.03;100.00
69570;BME280;56781;42.292;23.146;2023-05-10T03:35:08;95741.25;;;7.20;100.00
69570;BME280;56781;42.292;23.146;2023-05-10T03:37:35;95718.69;;;7.02;100.00
69570;BME280;56781;42.292;23.146;2023-05-10T03:40:03;95719.50;;;6.97;100.00
69570;BME280;56781;42.292;23.146;2023-05-10T03:42:31;95726.66;;;7.02;100.00
69570;BME280;56781;42.292;23.146;2023-05-10T03:44:58;95723.22;;;6.96;100.00
69570;BME280;56781;42.292;23.146;2023-05-10T03:47:25;95749.50;;;7.18;100.00
69570;BME280;56781;42.292;23.146;2023-05-10T03:49:52;95750.38;;;6.98;100.00
69570;BME280;56781;42.292;23.146;2023-05-10T03:52:19;95726.69;;;6.92;100.00
69570;BME280;56781;42.292;23.146;2023-05-10T03:54:47;95741.84;;;7.06;100.00
69570;BME280;56781;42.292;23.146;2023-05-10T03:57:14;95725.38;;;6.89;100.00
69570;BME280;56781;42.292;23.146;2023-05-10T03:59:41;95722.69;;;6.99;100.00
69570;BME280;56781;42.292;23.146;2023-05-10T04:02:08;95721.91;;;6.94;100.00
69570;BME280;56781;42.292;23.146;2023-05-10T04:04:35;95742.38;;;7.08;100.00
69570;BME280;56781;42.292;23.146;2023-05-10T04:07:03;95726.16;;;6.95;100.00
69570;BME280;56781;42.292;23.146;2023-05-10T04:09:30;95737.34;;;6.97;100.00
69570;BME280;56781;42.292;23.146;2023-05-10T04:11:58;95731.75;;;6.98;100.00
69570;BME280;56781;42.292;23.146;2023-05-10T04:14:27;95743.44;;;7.02;100.00
69570;BME280;56781;42.292;23.146;2023-05-10T04:16:54;95764.16;;;7.16;100.00
69570;BME280;56781;42.292;23.146;2023-05-10T04:19:22;95756.25;;;6.95;100.00
69570;BME280;56781;42.292;23.146;2023-05-10T04:21:49;95747.97;;;6.92;100.00
69570;BME280;56781;42.292;23.146;2023-05-10T04:24:16;95747.19;;;6.91;100.00
69570;BME280;56781;42.292;23.146;2023-05-10T04:26:43;95759.13;;;7.09;100.00
69570;BME280;56781;42.292;23.146;2023-05-10T04:29:11;95744.78;;;7.00;100.00
69570;BME280;56781;42.292;23.146;2023-05-10T04:31:38;95749.31;;;6.94;100.00
69570;BME280;56781;42.292;23.146;2023-05-10T04:34:05;95758.09;;;6.95;100.00
69570;BME280;56781;42.292;23.146;2023-05-10T04:36:32;95749.84;;;6.96;100.00
69570;BME280;56781;42.292;23.146;2023-05-10T04:39:03;95753.28;;;7.02;100.00
69570;BME280;56781;42.292;23.146;2023-05-10T04:41:30;95746.09;;;6.97;100.00
69570;BME280;56781;42.292;23.146;2023-05-10T04:43:57;95749.25;;;7.15;100.00
69570;BME280;56781;42.292;23.146;2023-05-10T04:46:24;95767.34;;;7.18;100.00
69570;BME280;56781;42.292;23.146;2023-05-10T04:48:51;95747.16;;;7.01;100.00
69570;BME280;56781;42.292;23.146;2023-05-10T04:51:19;95749.31;;;6.94;100.00
69570;BME280;56781;42.292;23.146;2023-05-10T04:53:47;95755.13;;;7.06;100.00
69570;BME280;56781;42.292;23.146;2023-05-10T04:56:30;95747.69;;;7.03;100.00
69570;BME280;56781;42.292;23.146;2023-05-10T04:58:57;95743.97;;;6.99;100.00
69570;BME280;56781;42.292;23.146;2023-05-10T05:01:24;95742.88;;;7.05;100.00
69570;BME280;56781;42.292;23.146;2023-05-10T05:03:52;95754.06;;;7.13;100.00
69570;BME280;56781;42.292;23.146;2023-05-10T05:06:20;95742.38;;;7.08;100.00
69570;BME280;56781;42.292;23.146;2023-05-10T05:08:51;95750.59;;;7.12;100.00
69570;BME280;56781;42.292;23.146;2023-05-10T05:11:18;95755.13;;;7.06;100.00
69570;BME280;56781;42.292;23.146;2023-05-10T05:13:46;95754.84;;;7.08;100.00
69570;BME280;56781;42.292;23.146;2023-05-10T05:16:13;95753.50;;;7.10;100.00
69570;BME280;56781;42.292;23.146;2023-05-10T05:18:40;95769.97;;;7.28;100.00
69570;BME280;56781;42.292;23.146;2023-05-10T05:21:16;95772.94;;;7.16;100.00
69570;BME280;56781;42.292;23.146;2023-05-10T05:23:44;95775.31;;;7.23;100.00
69570;BME280;56781;42.292;23.146;2023-05-10T05:26:11;95759.13;;;7.09;100.00
69570;BME280;56781;42.292;23.146;2023-05-10T05:28:39;95759.84;;;7.30;100.00
69570;BME280;56781;42.292;23.146;2023-05-10T05:31:06;95748.19;;;7.16;100.00
69570;BME280;56781;42.292;23.146;2023-05-10T05:33:37;95759.84;;;7.30;100.00
69570;BME280;56781;42.292;23.146;2023-05-10T05:36:05;95759.81;;;7.35;100.00
69570;BME280;56781;42.292;23.146;2023-05-10T05:38:32;95769.63;;;7.45;100.00
69570;BME280;56781;42.292;23.146;2023-05-10T05:41:00;95792.44;;;7.66;100.00
69570;BME280;56781;42.292;23.146;2023-05-10T05:43:27;95774.81;;;7.75;100.00
69570;BME280;56781;42.292;23.146;2023-05-10T05:45:54;95777.72;;;7.79;100.00
69570;BME280;56781;42.292;23.146;2023-05-10T05:48:21;95771.19;;;7.56;100.00
69570;BME280;56781;42.292;23.146;2023-05-10T05:50:49;95810.75;;;7.83;100.00
69570;BME280;56781;42.292;23.146;2023-05-10T05:53:16;95810.47;;;7.90;100.00
69570;BME280;56781;42.292;23.146;2023-05-10T05:56:01;95799.41;;;8.07;100.00
69570;BME280;56781;42.292;23.146;2023-05-10T05:58:29;95785.16;;;7.87;100.00
69570;BME280;56781;42.292;23.146;2023-05-10T06:00:56;95788.06;;;7.86;100.00
69570;BME280;56781;42.292;23.146;2023-05-10T06:03:24;95793.53;;;8.10;100.00
69570;BME280;56781;42.292;23.146;2023-05-10T06:05:51;95795.66;;;8.08;100.00
69570;BME280;56781;42.292;23.146;2023-05-10T06:08:18;95787.09;;;8.16;100.00
69570;BME280;56781;42.292;23.146;2023-05-10T06:10:46;95796.03;;;8.30;100.00
69570;BME280;56781;42.292;23.146;2023-05-10T06:13:13;95792.34;;;8.26;100.00
69570;BME280;56781;42.292;23.146;2023-05-10T06:15:40;95794.47;;;8.29;100.00
69570;BME280;56781;42.292;23.146;2023-05-10T06:18:07;95785.09;;;8.32;100.00
69570;BME280;56781;42.292;23.146;2023-05-10T06:20:35;95784.78;;;8.38;100.00
69570;BME280;56781;42.292;23.146;2023-05-10T06:23:02;95788.53;;;8.37;100.00
69570;BME280;56781;42.292;23.146;2023-05-10T06:25:29;95805.66;;;8.31;100.00
69570;BME280;56781;42.292;23.146;2023-05-10T06:27:56;95804.66;;;8.17;100.00
69570;BME280;56781;42.292;23.146;2023-05-10T06:30:25;95789.81;;;8.06;100.00
69570;BME280;56781;42.292;23.146;2023-05-10T06:32:56;95820.34;;;8.29;100.00
69570;BME280;56781;42.292;23.146;2023-05-10T06:35:23;95802.50;;;8.24;100.00
69570;BME280;56781;42.292;23.146;2023-05-10T06:37:51;95797.25;;;8.09;100.00
69570;BME280;56781;42.292;23.146;2023-05-10T06:40:18;95809.94;;;8.27;100.00
69570;BME280;56781;42.292;23.146;2023-05-10T06:42:46;95804.78;;;8.41;100.00
69570;BME280;56781;42.292;23.146;2023-05-10T06:45:14;95816.09;;;8.96;100.00
69570;BME280;56781;42.292;23.146;2023-05-10T06:47:42;95818.75;;;8.96;99.43
69570;BME280;56781;42.292;23.146;2023-05-10T06:50:10;95778.13;;;8.70;98.04
69570;BME280;56781;42.292;23.146;2023-05-10T06:52:40;95815.53;;;9.23;96.64
69570;BME280;56781;42.292;23.146;2023-05-10T06:55:08;95791.38;;;9.33;98.01
69570;BME280;56781;42.292;23.146;2023-05-10T06:57:35;95808.88;;;8.97;96.59
69570;BME280;56781;42.292;23.146;2023-05-10T07:00:03;95806.59;;;9.09;95.95
69570;BME280;56781;42.292;23.146;2023-05-10T07:02:31;95801.53;;;9.07;96.32
69570;BME280;56781;42.292;23.146;2023-05-10T07:04:59;95807.13;;;9.35;97.22
69570;BME280;56781;42.292;23.146;2023-05-10T07:07:29;95807.81;;;9.46;95.22
69570;BME280;56781;42.292;23.146;2023-05-10T07:09:56;95825.19;;;9.67;94.45
69570;BME280;56781;42.292;23.146;2023-05-10T07:12:24;95798.25;;;9.64;94.03
69570;BME280;56781;42.292;23.146;2023-05-10T07:14:52;95805.97;;;9.65;93.94
69570;BME280;56781;42.292;23.146;2023-05-10T07:17:19;95819.63;;;9.64;94.12
69570;BME280;56781;42.292;23.146;2023-05-10T07:19:46;95813.66;;;9.72;94.92
69570;BME280;56781;42.292;23.146;2023-05-10T07:22:15;95815.72;;;9.56;92.58
69570;BME280;56781;42.292;23.146;2023-05-10T07:24:43;95812.31;;;9.50;93.64
69570;BME280;56781;42.292;23.146;2023-05-10T07:27:10;95831.28;;;9.92;93.38
69570;BME280;56781;42.292;23.146;2023-05-10T07:29:38;95829.06;;;9.80;92.63
69570;BME280;56781;42.292;23.146;2023-05-10T07:32:05;95804.28;;;9.26;94.38
69570;BME280;56781;42.292;23.146;2023-05-10T07:34:33;95824.91;;;9.88;95.05
69570;BME280;56781;42.292;23.146;2023-05-10T07:37:00;95821.81;;;9.81;94.00
69570;BME280;56781;42.292;23.146;2023-05-10T07:39:28;95816.06;;;9.68;91.97
69570;BME280;56781;42.292;23.146;2023-05-10T07:41:55;95812.00;;;9.52;92.86
69570;BME280;56781;42.292;23.146;2023-05-10T07:44:22;95819.53;;;9.50;93.72
69570;BME280;56781;42.292;23.146;2023-05-10T07:46:50;95813.56;;;9.77;93.31
69570;BME280;56781;42.292;23.146;2023-05-10T07:49:17;95840.31;;;9.96;93.25
69570;BME280;56781;42.292;23.146;2023-05-10T07:51:44;95808.22;;;10.15;92.61
69570;BME280;56781;42.292;23.146;2023-05-10T07:54:12;95812.38;;;10.07;92.39
69570;BME280;56781;42.292;23.146;2023-05-10T07:56:40;95830.66;;;10.19;91.53
69570;BME280;56781;42.292;23.146;2023-05-10T07:59:16;95831.78;;;10.37;89.76
69570;BME280;56781;42.292;23.146;2023-05-10T08:01:44;95810.19;;;10.47;91.21
69570;BME280;56781;42.292;23.146;2023-05-10T08:04:12;95808.06;;;10.63;89.09
69570;BME280;56781;42.292;23.146;2023-05-10T08:06:39;95817.47;;;10.93;87.13
69570;BME280;56781;42.292;23.146;2023-05-10T08:09:08;95804.41;;;11.05;86.39
69570;BME280;56781;42.292;23.146;2023-05-10T08:11:36;95820.03;;;10.84;87.59
69570;BME280;56781;42.292;23.146;2023-05-10T08:14:03;95836.13;;;10.84;88.00
69570;BME280;56781;42.292;23.146;2023-05-10T08:16:30;95831.53;;;10.85;89.03
69570;BME280;56781;42.292;23.146;2023-05-10T08:18:59;95843.63;;;10.82;88.21
69570;BME280;56781;42.292;23.146;2023-05-10T08:21:26;95850.28;;;10.85;88.60
69570;BME280;56781;42.292;23.146;2023-05-10T08:23:53;95844.97;;;10.99;87.93
69570;BME280;56781;42.292;23.146;2023-05-10T08:26:20;95848.47;;;10.99;88.78
69570;BME280;56781;42.292;23.146;2023-05-10T08:28:48;95860.03;;;10.62;87.33
69570;BME280;56781;42.292;23.146;2023-05-10T08:31:15;95845.00;;;10.47;88.76
69570;BME280;56781;42.292;23.146;2023-05-10T08:33:43;95847.50;;;10.19;88.78
69570;BME280;56781;42.292;23.146;2023-05-10T08:36:10;95840.16;;;9.87;89.83
69570;BME280;56781;42.292;23.146;2023-05-10T08:38:37;95824.94;;;10.07;91.54
69570;BME280;56781;42.292;23.146;2023-05-10T08:41:05;95830.66;;;10.19;92.44
69570;BME280;56781;42.292;23.146;2023-05-10T08:43:33;95847.91;;;10.32;91.54
69570;BME280;56781;42.292;23.146;2023-05-10T08:46:05;95837.38;;;9.97;93.96
69570;BME280;56781;42.292;23.146;2023-05-10T08:48:33;95834.44;;;10.18;93.96
69570;BME280;56781;42.292;23.146;2023-05-10T08:51:02;95836.81;;;10.19;92.39
69570;BME280;56781;42.292;23.146;2023-05-10T08:53:31;95846.13;;;10.03;90.04
69570;BME280;56781;42.292;23.146;2023-05-10T08:56:01;95867.00;;;10.01;94.23
69570;BME280;56781;42.292;23.146;2023-05-10T08:58:29;95840.84;;;9.98;92.18
69570;BME280;56781;42.292;23.146;2023-05-10T09:00:57;95840.91;;;9.93;92.14
69570;BME280;56781;42.292;23.146;2023-05-10T09:03:24;95837.00;;;10.23;93.61
69570;BME280;56781;42.292;23.146;2023-05-10T09:05:52;95857.84;;;10.07;91.58
69570;BME280;56781;42.292;23.146;2023-05-10T09:08:20;95860.59;;;10.02;92.00
69570;BME280;56781;42.292;23.146;2023-05-10T09:10:48;95855.72;;;10.04;92.22
69570;BME280;56781;42.292;23.146;2023-05-10T09:13:15;95857.91;;;10.02;92.26
69570;BME280;56781;42.292;23.146;2023-05-10T09:15:45;95843.22;;;9.99;93.19
69570;BME280;56781;42.292;23.146;2023-05-10T09:18:12;95845.59;;;10.01;91.19
69570;BME280;56781;42.292;23.146;2023-05-10T09:20:40;95847.44;;;10.06;90.81
69570;BME280;56781;42.292;23.146;2023-05-10T09:23:08;95844.03;;;10.00;91.70
69570;BME280;56781;42.292;23.146;2023-05-10T09:25:35;95846.88;;;10.47;91.04
69570;BME280;56781;42.292;23.146;2023-05-10T09:28:06;95833.88;;;10.40;89.99
69570;BME280;56781;42.292;23.146;2023-05-10T09:30:35;95834.84;;;10.25;90.61
69570;BME280;56781;42.292;23.146;2023-05-10T09:33:02;95833.19;;;10.10;90.82
69570;BME280;56781;42.292;23.146;2023-05-10T09:35:31;95838.84;;;10.28;91.07
69570;BME280;56781;42.292;23.146;2023-05-10T09:38:03;95840.28;;;10.39;91.46
69570;BME280;56781;42.292;23.146;2023-05-10T09:40:31;95835.56;;;10.69;90.74
69570;BME280;56781;42.292;23.146;2023-05-10T09:43:03;95824.81;;;10.36;90.69
69570;BME280;56781;42.292;23.146;2023-05-10T09:45:32;95840.88;;;10.36;91.12
69570;BME280;56781;42.292;23.146;2023-05-10T09:48:04;95835.91;;;10.29;91.31
69570;BME280;56781;42.292;23.146;2023-05-10T09:50:31;95825.25;;;10.43;91.65
69570;BME280;56781;42.292;23.146;2023-05-10T09:53:00;95818.53;;;10.46;90.45
69570;BME280;56781;42.292;23.146;2023-05-10T09:58:03;95807.44;;;10.14;90.57
69570;BME280;56781;42.292;23.146;2023-05-10T10:00:45;95835.53;;;10.36;91.88
69570;BME280;56781;42.292;23.146;2023-05-10T10:03:19;95799.44;;;10.33;91.21
69570;BME280;56781;42.292;23.146;2023-05-10T10:05:48;95806.59;;;10.38;90.06
69570;BME280;56781;42.292;23.146;2023-05-10T10:08:16;95807.97;;;10.35;89.03
69570;BME280;56781;42.292;23.146;2023-05-10T10:10:44;95826.16;;;10.71;90.60
69570;BME280;56781;42.292;23.146;2023-05-10T10:13:13;95803.19;;;10.84;88.19
69570;BME280;56781;42.292;23.146;2023-05-10T10:15:42;95813.38;;;11.42;87.29
69570;BME280;56781;42.292;23.146;2023-05-10T10:18:14;95796.50;;;11.28;87.93
69570;BME280;56781;42.292;23.146;2023-05-10T10:20:44;95803.66;;;11.46;87.33
69570;BME280;56781;42.292;23.146;2023-05-10T10:23:12;95804.44;;;11.47;85.21
69570;BME280;56781;42.292;23.146;2023-05-10T10:25:43;95800.47;;;11.58;85.43
69570;BME280;56781;42.292;23.146;2023-05-10T10:28:21;95784.34;;;11.72;85.62
69570;BME280;56781;42.292;23.146;2023-05-10T10:30:54;95801.47;;;11.90;84.46
69570;BME280;56781;42.292;23.146;2023-05-10T10:36:14;95795.97;;;12.31;82.68
69570;BME280;56781;42.292;23.146;2023-05-10T10:41:36;95789.53;;;12.55;81.45
69570;BME280;56781;42.292;23.146;2023-05-10T10:47:00;95803.56;;;12.52;79.26
69570;BME280;56781;42.292;23.146;2023-05-10T10:49:30;95817.47;;;12.54;79.02
69570;BME280;56781;42.292;23.146;2023-05-10T10:52:21;95821.16;;;12.58;79.49
69570;BME280;56781;42.292;23.146;2023-05-10T10:55:01;95804.56;;;12.19;80.76
69570;BME280;56781;42.292;23.146;2023-05-10T10:57:31;95790.66;;;12.17;81.66
69570;BME280;56781;42.292;23.146;2023-05-10T11:00:22;95815.66;;;11.90;82.03
69570;BME280;56781;42.292;23.146;2023-05-10T11:02:52;95792.78;;;12.29;83.05
69570;BME280;56781;42.292;23.146;2023-05-10T11:05:23;95802.97;;;12.18;82.22
69570;BME280;56781;42.292;23.146;2023-05-10T11:07:55;95790.66;;;12.17;81.87
69570;BME280;56781;42.292;23.146;2023-05-10T11:10:24;95788.91;;;11.85;82.22
69570;BME280;56781;42.292;23.146;2023-05-10T11:15:20;95792.13;;;11.87;81.42
69570;BME280;56781;42.292;23.146;2023-05-10T11:17:48;95788.22;;;11.93;83.54
69570;BME280;56781;42.292;23.146;2023-05-10T11:20:18;95794.63;;;12.20;83.25
69570;BME280;56781;42.292;23.146;2023-05-10T11:22:52;95792.66;;;12.12;83.38
69570;BME280;56781;42.292;23.146;2023-05-10T11:25:23;95788.84;;;11.76;85.22
69570;BME280;56781;42.292;23.146;2023-05-10T11:27:53;95821.19;;;12.08;85.11
69570;BME280;56781;42.292;23.146;2023-05-10T11:30:20;95792.88;;;12.02;85.47
69570;BME280;56781;42.292;23.146;2023-05-10T11:32:47;95801.84;;;11.28;86.30
69570;BME280;56781;42.292;23.146;2023-05-10T11:35:15;95793.72;;;11.19;87.71
69570;BME280;56781;42.292;23.146;2023-05-10T11:37:42;95786.06;;;11.13;87.23
69570;BME280;56781;42.292;23.146;2023-05-10T11:40:10;95807.13;;;11.33;88.70
69570;BME280;56781;42.292;23.146;2023-05-10T11:42:38;95792.34;;;11.22;87.98
69570;BME280;56781;42.292;23.146;2023-05-10T11:45:06;95789.53;;;10.99;89.04
69570;BME280;56781;42.292;23.146;2023-05-10T11:47:33;95808.16;;;10.91;88.99
69570;BME280;56781;42.292;23.146;2023-05-10T11:50:02;95802.81;;;11.04;89.45
69570;BME280;56781;42.292;23.146;2023-05-10T11:52:35;95786.00;;;10.71;89.45
69570;BME280;56781;42.292;23.146;2023-05-10T11:55:04;95797.41;;;10.77;89.09
69570;BME280;56781;42.292;23.146;2023-05-10T11:57:31;95788.31;;;10.78;90.22
69570;BME280;56781;42.292;23.146;2023-05-10T11:59:59;95794.22;;;10.75;89.84
69570;BME280;56781;42.292;23.146;2023-05-10T12:02:28;95787.59;;;10.72;89.25
69570;BME280;56781;42.292;23.146;2023-05-10T12:04:56;95778.75;;;10.72;89.59
69570;BME280;56781;42.292;23.146;2023-05-10T12:07:26;95800.63;;;11.06;90.77
69570;BME280;56781;42.292;23.146;2023-05-10T12:10:04;95782.41;;;10.62;89.05
69570;BME280;56781;42.292;23.146;2023-05-10T12:12:52;95786.25;;;10.56;90.06
69570;BME280;56781;42.292;23.146;2023-05-10T12:15:21;95790.78;;;10.55;90.04
69570;BME280;56781;42.292;23.146;2023-05-10T12:17:49;95770.41;;;10.59;90.23
69570;BME280;56781;42.292;23.146;2023-05-10T12:20:22;95758.34;;;10.43;90.25
69570;BME280;56781;42.292;23.146;2023-05-10T12:22:54;95801.94;;;10.62;90.68
69570;BME280;56781;42.292;23.146;2023-05-10T12:25:30;95775.31;;;10.52;89.44
69570;BME280;56781;42.292;23.146;2023-05-10T12:27:59;95783.28;;;10.57;90.64
69570;BME280;56781;42.292;23.146;2023-05-10T12:30:31;95771.75;;;10.43;89.63
69570;BME280;56781;42.292;23.146;2023-05-10T12:33:06;95755.25;;;10.36;89.48
69570;BME280;56781;42.292;23.146;2023-05-10T12:35:44;95793.56;;;10.50;90.76
69570;BME280;56781;42.292;23.146;2023-05-10T12:38:35;95793.34;;;10.47;91.76
69570;BME280;56781;42.292;23.146;2023-05-10T12:41:08;95778.03;;;10.33;91.53
69570;BME280;56781;42.292;23.146;2023-05-10T12:43:36;95777.00;;;10.48;92.18
69570;BME280;56781;42.292;23.146;2023-05-10T12:46:11;95762.59;;;10.44;92.18
69570;BME280;56781;42.292;23.146;2023-05-10T12:48:40;95750.03;;;10.26;90.47
69570;BME280;56781;42.292;23.146;2023-05-10T12:51:08;95757.88;;;10.55;90.43
69570;BME280;56781;42.292;23.146;2023-05-10T12:53:36;95770.00;;;10.66;91.31
69570;BME280;56781;42.292;23.146;2023-05-10T12:56:03;95757.09;;;10.54;92.28
69570;BME280;56781;42.292;23.146;2023-05-10T12:58:31;95770.88;;;10.94;91.20
69570;BME280;56781;42.292;23.146;2023-05-10T13:01:02;95763.09;;;10.79;89.69
69570;BME280;56781;42.292;23.146;2023-05-10T13:03:29;95777.69;;;10.73;90.84
69570;BME280;56781;42.292;23.146;2023-05-10T13:05:57;95776.16;;;10.67;90.70
69570;BME280;56781;42.292;23.146;2023-05-10T13:08:24;95753.06;;;10.71;90.94
69570;BME280;56781;42.292;23.146;2023-05-10T13:10:51;95768.94;;;10.67;90.76
69570;BME280;56781;42.292;23.146;2023-05-10T13:13:19;95743.94;;;10.72;90.13
69570;BME280;56781;42.292;23.146;2023-05-10T13:15:46;95741.47;;;10.61;89.58
69570;BME280;56781;42.292;23.146;2023-05-10T13:18:13;95735.50;;;10.64;88.87
69570;BME280;56781;42.292;23.146;2023-05-10T13:20:41;95738.13;;;10.97;90.35
69570;BME280;56781;42.292;23.146;2023-05-10T13:23:10;95726.63;;;10.97;89.44
69570;BME280;56781;42.292;23.146;2023-05-10T13:25:37;95723.03;;;11.01;87.90
69570;BME280;56781;42.292;23.146;2023-05-10T13:28:04;95742.50;;;11.21;87.65